Eskridge, Kansas
Current Conditions -  °F | °C
As of 11:53 PM on Thursday 18 Dec 2014 (Local Time) from KFOE Reporting Station
Overcast Overcast  
Wind Chill: 32°   Ceiling: 600
Heat Index: 32°   Visibility: 8mi
Dew Point: 29°   Wind: 0mph
Humidity: 88%   Direction: NA
Pressure: 30.26"   Gusts: NA
Location:  38.86°N, 96.11°W
Report Text: KFOE 190553Z AUTO 00000KT 8SM OVC006 00/M02 A3026 RMK AO2 SLP257 T00001017 10006 20000 400111017 53006
Loading
Personal Weather Stations






























Interactive Weather Map New forecast layout! Learn more

10-Day Weather Forecast

Advertisements
Track Severe Weather on mobile